Singersville, Pennsylvania
Current Conditions -  °F | °C
As of 10:56 AM on Monday 26 Jan 2015 (Local Time) from KCXY Reporting Station
Overcast Overcast  
Wind Chill: 13°   Ceiling: 1900
Heat Index: 24°   Visibility: 7mi
Dew Point: 18°   Wind: 12mph
Humidity: 77%   Direction: 70°ENE
Pressure: 29.88"   Gusts: NA
Location:  40.4076°N, 76.8769°W
Report Text: KCXY 261556Z 07010KT 7SM OVC019 M04/M08 A2988 RMK AO2 SNB07E54 SLP123 P0000 T10441078
Loading
Personal Weather Stations






























Interactive Weather Map New forecast layout! Learn more

10-Day Weather Forecast

Advertisements
Track Severe Weather on mobile